sensor_id;sensor_type;location;lat;lon;timestamp;pressure;altitude;pressure_sealevel;temperature;humidity
39773;BME280;25451;51.960;6.250;2023-04-02T00:09:01;100954.09;;;7.29;83.00
39773;BME280;25451;51.960;6.250;2023-04-02T00:11:38;100958.97;;;7.27;83.09
39773;BME280;25451;51.960;6.250;2023-04-02T00:14:29;100952.22;;;7.23;83.40
39773;BME280;25451;51.960;6.250;2023-04-02T00:16:56;100970.78;;;7.28;83.50
39773;BME280;25451;51.960;6.250;2023-04-02T00:19:35;100975.19;;;7.29;83.07
39773;BME280;25451;51.960;6.250;2023-04-02T00:22:05;100977.38;;;7.20;82.70
39773;BME280;25451;51.960;6.250;2023-04-02T00:24:32;100990.66;;;7.23;83.16
39773;BME280;25451;51.960;6.250;2023-04-02T00:26:58;100992.97;;;7.26;83.40
39773;BME280;25451;51.960;6.250;2023-04-02T00:29:23;100988.38;;;7.20;83.32
39773;BME280;25451;51.960;6.250;2023-04-02T00:31:50;100990.69;;;7.17;83.02
39773;BME280;25451;51.960;6.250;2023-04-02T00:34:30;100998.75;;;7.12;82.87
39773;BME280;25451;51.960;6.250;2023-04-02T00:36:56;101010.75;;;7.17;83.02
39773;BME280;25451;51.960;6.250;2023-04-02T00:39:28;101019.44;;;7.14;83.12
39773;BME280;25451;51.960;6.250;2023-04-02T00:41:56;101024.91;;;7.14;83.31
39773;BME280;25451;51.960;6.250;2023-04-02T00:44:35;101029.97;;;7.11;83.66
39773;BME280;25451;51.960;6.250;2023-04-02T00:47:09;101032.31;;;7.14;82.86
39773;BME280;25451;51.960;6.250;2023-04-02T00:49:40;101026.84;;;7.07;83.21
39773;BME280;25451;51.960;6.250;2023-04-02T00:52:14;101047.53;;;7.10;82.73
39773;BME280;25451;51.960;6.250;2023-04-02T00:55:00;101029.59;;;7.01;83.07
39773;BME280;25451;51.960;6.250;2023-04-02T00:57:28;101030.91;;;6.98;83.36
39773;BME280;25451;51.960;6.250;2023-04-02T01:00:10;101058.75;;;7.02;82.75
39773;BME280;25451;51.960;6.250;2023-04-02T01:02:40;101052.84;;;6.98;82.95
39773;BME280;25451;51.960;6.250;2023-04-02T01:08:02;101048.44;;;6.84;83.11
39773;BME280;25451;51.960;6.250;2023-04-02T01:16:14;101084.09;;;6.91;83.10
39773;BME280;25451;51.960;6.250;2023-04-02T01:18:47;101087.06;;;6.89;82.84
39773;BME280;25451;51.960;6.250;2023-04-02T01:21:22;101084.31;;;6.83;82.93
39773;BME280;25451;51.960;6.250;2023-04-02T01:24:05;101083.28;;;6.84;83.15
39773;BME280;25451;51.960;6.250;2023-04-02T01:29:18;101093.19;;;6.78;82.63
39773;BME280;25451;51.960;6.250;2023-04-02T01:31:45;101087.72;;;6.72;82.69
39773;BME280;25451;51.960;6.250;2023-04-02T01:34:15;101098.69;;;6.72;83.24
39773;BME280;25451;51.960;6.250;2023-04-02T01:37:03;101071.09;;;6.47;82.80
39773;BME280;25451;51.960;6.250;2023-04-02T01:42:23;101113.25;;;6.65;83.18
39773;BME280;25451;51.960;6.250;2023-04-02T01:44:51;101126.34;;;6.63;82.98
39773;BME280;25451;51.960;6.250;2023-04-02T01:47:21;101128.88;;;6.65;82.74
39773;BME280;25451;51.960;6.250;2023-04-02T01:49:48;101130.34;;;6.61;82.34
39773;BME280;25451;51.960;6.250;2023-04-02T01:52:25;101128.88;;;6.58;82.96
39773;BME280;25451;51.960;6.250;2023-04-02T01:54:58;101133.09;;;6.54;82.92
39773;BME280;25451;51.960;6.250;2023-04-02T01:57:24;101142.78;;;6.57;82.79
39773;BME280;25451;51.960;6.250;2023-04-02T01:59:51;101146.78;;;6.54;82.54
39773;BME280;25451;51.960;6.250;2023-04-02T02:02:16;101170.44;;;6.55;82.59
39773;BME280;25451;51.960;6.250;2023-04-02T02:04:42;101163.88;;;6.56;82.34
39773;BME280;25451;51.960;6.250;2023-04-02T02:07:16;101153.75;;;6.50;82.93
39773;BME280;25451;51.960;6.250;2023-04-02T02:09:43;101167.47;;;6.50;82.42
39773;BME280;25451;51.960;6.250;2023-04-02T02:12:12;101171.47;;;6.54;82.55
39773;BME280;25451;51.960;6.250;2023-04-02T02:14:38;101172.72;;;6.52;82.71
39773;BME280;25451;51.960;6.250;2023-04-02T02:17:06;101181.59;;;6.47;82.56
39773;BME280;25451;51.960;6.250;2023-04-02T02:19:41;101176.94;;;6.41;82.80
39773;BME280;25451;51.960;6.250;2023-04-02T02:24:57;101190.84;;;6.40;82.81
39773;BME280;25451;51.960;6.250;2023-04-02T02:32:47;101202.44;;;6.29;82.22
39773;BME280;25451;51.960;6.250;2023-04-02T02:35:24;101215.31;;;6.28;82.13
39773;BME280;25451;51.960;6.250;2023-04-02T02:37:58;101220.13;;;6.20;82.42
39773;BME280;25451;51.960;6.250;2023-04-02T02:40:32;101229.19;;;6.20;82.49
39773;BME280;25451;51.960;6.250;2023-04-02T02:43:02;101214.41;;;6.08;82.81
39773;BME280;25451;51.960;6.250;2023-04-02T02:45:33;101214.41;;;6.08;82.87
39773;BME280;25451;51.960;6.250;2023-04-02T02:48:02;101228.75;;;6.10;82.07
39773;BME280;25451;51.960;6.250;2023-04-02T02:50:30;101240.56;;;6.11;82.50
39773;BME280;25451;51.960;6.250;2023-04-02T02:52:58;101242.81;;;6.01;82.48
39773;BME280;25451;51.960;6.250;2023-04-02T02:55:31;101247.69;;;6.05;82.45
39773;BME280;25451;51.960;6.250;2023-04-02T02:58:02;101262.66;;;6.09;82.34
39773;BME280;25451;51.960;6.250;2023-04-02T03:00:31;101269.22;;;6.08;82.26
39773;BME280;25451;51.960;6.250;2023-04-02T03:02:58;101262.47;;;6.04;82.76
39773;BME280;25451;51.960;6.250;2023-04-02T03:05:25;101282.91;;;6.08;82.52
39773;BME280;25451;51.960;6.250;2023-04-02T03:07:54;101286.25;;;6.04;82.29
39773;BME280;25451;51.960;6.250;2023-04-02T03:16:11;101300.34;;;5.94;81.98
39773;BME280;25451;51.960;6.250;2023-04-02T03:18:47;101300.09;;;5.89;82.34
39773;BME280;25451;51.960;6.250;2023-04-02T03:23:50;101315.88;;;5.87;82.32
39773;BME280;25451;51.960;6.250;2023-04-02T03:26:33;101321.78;;;5.84;82.36
39773;BME280;25451;51.960;6.250;2023-04-02T03:29:18;101328.25;;;5.83;82.69
39773;BME280;25451;51.960;6.250;2023-04-02T03:34:41;101351.19;;;5.75;82.42
39773;BME280;25451;51.960;6.250;2023-04-02T03:42:16;101342.22;;;5.60;82.34
39773;BME280;25451;51.960;6.250;2023-04-02T03:44:53;101350.91;;;5.64;81.87
39773;BME280;25451;51.960;6.250;2023-04-02T03:47:33;101366.28;;;5.65;82.18
39773;BME280;25451;51.960;6.250;2023-04-02T03:50:14;101379.31;;;5.63;82.37
39773;BME280;25451;51.960;6.250;2023-04-02T03:52:43;101367.94;;;5.59;82.30
39773;BME280;25451;51.960;6.250;2023-04-02T03:55:14;101368.53;;;5.55;82.16
39773;BME280;25451;51.960;6.250;2023-04-02T03:57:52;101389.78;;;5.53;82.00
39773;BME280;25451;51.960;6.250;2023-04-02T04:02:56;101394.97;;;5.48;81.86
39773;BME280;25451;51.960;6.250;2023-04-02T04:05:25;101415.22;;;5.47;81.92
39773;BME280;25451;51.960;6.250;2023-04-02T04:07:56;101409.09;;;5.45;82.16
39773;BME280;25451;51.960;6.250;2023-04-02T04:10:25;101395.31;;;5.38;81.56
39773;BME280;25451;51.960;6.250;2023-04-02T04:12:54;101409.88;;;5.39;82.26
39773;BME280;25451;51.960;6.250;2023-04-02T04:20:31;101442.31;;;5.42;81.67
39773;BME280;25451;51.960;6.250;2023-04-02T04:23:35;101451.59;;;5.41;81.80
39773;BME280;25451;51.960;6.250;2023-04-02T04:28:46;101457.44;;;5.38;81.38
39773;BME280;25451;51.960;6.250;2023-04-02T04:31:44;101459.50;;;5.36;81.55
39773;BME280;25451;51.960;6.250;2023-04-02T04:34:16;101462.66;;;5.33;81.45
39773;BME280;25451;51.960;6.250;2023-04-02T04:36:56;101478.81;;;5.28;81.05
39773;BME280;25451;51.960;6.250;2023-04-02T04:39:44;101479.56;;;5.22;81.72
39773;BME280;25451;51.960;6.250;2023-04-02T04:42:20;101472.81;;;5.18;81.21
39773;BME280;25451;51.960;6.250;2023-04-02T04:45:05;101479.69;;;5.14;81.37
39773;BME280;25451;51.960;6.250;2023-04-02T04:48:03;101489.63;;;5.15;81.55
39773;BME280;25451;51.960;6.250;2023-04-02T04:50:37;101475.41;;;5.04;81.52
39773;BME280;25451;51.960;6.250;2023-04-02T04:53:07;101490.97;;;5.04;81.62
39773;BME280;25451;51.960;6.250;2023-04-02T04:55:42;101506.16;;;5.07;81.54
39773;BME280;25451;51.960;6.250;2023-04-02T04:58:32;101514.06;;;5.01;81.32
39773;BME280;25451;51.960;6.250;2023-04-02T05:01:04;101513.41;;;4.99;81.52
39773;BME280;25451;51.960;6.250;2023-04-02T05:06:04;101527.28;;;4.98;81.22
39773;BME280;25451;51.960;6.250;2023-04-02T05:08:35;101548.31;;;4.97;81.16
39773;BME280;25451;51.960;6.250;2023-04-02T05:11:12;101550.41;;;4.95;81.19
39773;BME280;25451;51.960;6.250;2023-04-02T05:13:55;101564.47;;;4.92;81.25
39773;BME280;25451;51.960;6.250;2023-04-02T05:16:30;101556.84;;;4.88;81.14
39773;BME280;25451;51.960;6.250;2023-04-02T05:19:11;101561.44;;;4.87;80.95
39773;BME280;25451;51.960;6.250;2023-04-02T05:21:46;101587.13;;;4.86;80.82
39773;BME280;25451;51.960;6.250;2023-04-02T05:27:16;101571.81;;;4.77;80.82
39773;BME280;25451;51.960;6.250;2023-04-02T05:29:46;101593.72;;;4.77;81.09
39773;BME280;25451;51.960;6.250;2023-04-02T05:32:42;101589.34;;;4.68;80.93
39773;BME280;25451;51.960;6.250;2023-04-02T05:35:16;101611.22;;;4.68;80.91
39773;BME280;25451;51.960;6.250;2023-04-02T05:37:43;101603.41;;;4.65;80.73
39773;BME280;25451;51.960;6.250;2023-04-02T05:40:17;101613.50;;;4.65;80.51
39773;BME280;25451;51.960;6.250;2023-04-02T05:42:48;101619.25;;;4.55;80.98
39773;BME280;25451;51.960;6.250;2023-04-02T05:45:26;101629.44;;;4.61;80.98
39773;BME280;25451;51.960;6.250;2023-04-02T05:47:55;101633.09;;;4.54;80.76
39773;BME280;25451;51.960;6.250;2023-04-02T05:53:16;101639.59;;;4.53;80.54
39773;BME280;25451;51.960;6.250;2023-04-02T05:58:47;101659.78;;;4.52;80.24
39773;BME280;25451;51.960;6.250;2023-04-02T06:01:19;101666.16;;;4.44;80.41
39773;BME280;25451;51.960;6.250;2023-04-02T06:04:02;101674.34;;;4.44;80.55
39773;BME280;25451;51.960;6.250;2023-04-02T06:09:10;101683.84;;;4.34;80.15
39773;BME280;25451;51.960;6.250;2023-04-02T06:11:45;101678.94;;;4.29;80.52
39773;BME280;25451;51.960;6.250;2023-04-02T06:14:13;101689.47;;;4.32;80.45
39773;BME280;25451;51.960;6.250;2023-04-02T06:16:40;101692.75;;;4.28;80.31
39773;BME280;25451;51.960;6.250;2023-04-02T06:19:14;101702.47;;;4.30;80.48
39773;BME280;25451;51.960;6.250;2023-04-02T06:21:45;101675.09;;;4.15;80.30
39773;BME280;25451;51.960;6.250;2023-04-02T06:24:16;101718.59;;;4.25;80.12
39773;BME280;25451;51.960;6.250;2023-04-02T06:26:48;101717.53;;;4.26;80.10
39773;BME280;25451;51.960;6.250;2023-04-02T06:29:34;101723.66;;;4.28;80.18
39773;BME280;25451;51.960;6.250;2023-04-02T06:32:05;101737.19;;;4.21;79.92
39773;BME280;25451;51.960;6.250;2023-04-02T06:34:32;101733.13;;;4.17;80.11
39773;BME280;25451;51.960;6.250;2023-04-02T06:37:04;101757.91;;;4.16;79.95
39773;BME280;25451;51.960;6.250;2023-04-02T06:39:36;101755.72;;;4.11;79.96
39773;BME280;25451;51.960;6.250;2023-04-02T06:42:05;101751.47;;;4.09;79.96
39773;BME280;25451;51.960;6.250;2023-04-02T06:44:35;101766.81;;;4.10;79.65
39773;BME280;25451;51.960;6.250;2023-04-02T06:47:06;101773.34;;;4.09;79.64
39773;BME280;25451;51.960;6.250;2023-04-02T06:49:46;101774.34;;;4.08;79.76
39773;BME280;25451;51.960;6.250;2023-04-02T06:52:17;101779.31;;;4.04;79.71
39773;BME280;25451;51.960;6.250;2023-04-02T06:54:45;101788.00;;;4.08;79.93
39773;BME280;25451;51.960;6.250;2023-04-02T06:57:11;101783.44;;;4.00;79.47
39773;BME280;25451;51.960;6.250;2023-04-02T06:59:37;101804.78;;;4.05;79.55
39773;BME280;25451;51.960;6.250;2023-04-02T07:02:04;101797.97;;;4.01;79.77
39773;BME280;25451;51.960;6.250;2023-04-02T07:04:40;101810.09;;;3.98;79.58
39773;BME280;25451;51.960;6.250;2023-04-02T07:07:05;101837.22;;;4.00;79.73
39773;BME280;25451;51.960;6.250;2023-04-02T07:09:30;101815.59;;;3.90;79.52
39773;BME280;25451;51.960;6.250;2023-04-02T07:11:56;101826.31;;;3.92;79.78
39773;BME280;25451;51.960;6.250;2023-04-02T07:14:22;101827.38;;;3.91;79.65
39773;BME280;25451;51.960;6.250;2023-04-02T07:16:47;101826.69;;;3.89;79.53
39773;BME280;25451;51.960;6.250;2023-04-02T07:19:18;101835.88;;;3.96;79.44
39773;BME280;25451;51.960;6.250;2023-04-02T07:21:44;101838.13;;;3.92;79.23
39773;BME280;25451;51.960;6.250;2023-04-02T07:24:09;101853.59;;;4.00;79.51
39773;BME280;25451;51.960;6.250;2023-04-02T07:26:35;101839.47;;;3.96;79.25
39773;BME280;25451;51.960;6.250;2023-04-02T07:29:00;101850.38;;;3.96;79.04
39773;BME280;25451;51.960;6.250;2023-04-02T07:31:27;101848.16;;;4.00;78.99
39773;BME280;25451;51.960;6.250;2023-04-02T07:33:55;101860.22;;;4.05;79.02
39773;BME280;25451;51.960;6.250;2023-04-02T07:36:22;101863.16;;;4.04;79.04
39773;BME280;25451;51.960;6.250;2023-04-02T07:38:48;101886.53;;;4.06;78.60
39773;BME280;25451;51.960;6.250;2023-04-02T07:41:14;101887.72;;;4.04;78.92
39773;BME280;25451;51.960;6.250;2023-04-02T07:43:41;101894.53;;;4.08;78.83
39773;BME280;25451;51.960;6.250;2023-04-02T07:46:08;101909.25;;;4.07;78.80
39773;BME280;25451;51.960;6.250;2023-04-02T07:48:33;101885.38;;;4.01;78.79
39773;BME280;25451;51.960;6.250;2023-04-02T07:50:59;101904.47;;;4.09;78.74
39773;BME280;25451;51.960;6.250;2023-04-02T07:53:35;101909.75;;;4.10;78.69
39773;BME280;25451;51.960;6.250;2023-04-02T07:56:06;101903.41;;;4.10;78.77
39773;BME280;25451;51.960;6.250;2023-04-02T07:58:32;101905.47;;;4.08;78.71
39773;BME280;25451;51.960;6.250;2023-04-02T08:00:58;101916.22;;;4.09;78.45
39773;BME280;25451;51.960;6.250;2023-04-02T08:03:25;101918.63;;;4.12;78.68
39773;BME280;25451;51.960;6.250;2023-04-02T08:05:52;101922.88;;;4.15;78.32
39773;BME280;25451;51.960;6.250;2023-04-02T08:08:18;101905.63;;;4.14;78.43
39773;BME280;25451;51.960;6.250;2023-04-02T08:10:43;101921.13;;;4.22;78.34
39773;BME280;25451;51.960;6.250;2023-04-02T08:13:08;101915.34;;;4.17;77.94
39773;BME280;25451;51.960;6.250;2023-04-02T08:15:34;101938.34;;;4.31;78.02
39773;BME280;25451;51.960;6.250;2023-04-02T08:17:59;101937.84;;;4.35;78.11
39773;BME280;25451;51.960;6.250;2023-04-02T08:20:24;101944.97;;;4.36;77.73
39773;BME280;25451;51.960;6.250;2023-04-02T08:22:50;101941.41;;;4.36;78.01
39773;BME280;25451;51.960;6.250;2023-04-02T08:25:15;101963.25;;;4.44;78.09
39773;BME280;25451;51.960;6.250;2023-04-02T08:27:41;101960.53;;;4.44;77.82
39773;BME280;25451;51.960;6.250;2023-04-02T08:30:08;101997.41;;;4.48;77.81
39773;BME280;25451;51.960;6.250;2023-04-02T08:32:35;101955.53;;;4.47;77.96
39773;BME280;25451;51.960;6.250;2023-04-02T08:35:01;101959.28;;;4.46;77.57
39773;BME280;25451;51.960;6.250;2023-04-02T08:37:26;101958.28;;;4.47;77.80
39773;BME280;25451;51.960;6.250;2023-04-02T08:39:52;101976.34;;;4.56;77.86
39773;BME280;25451;51.960;6.250;2023-04-02T08:45:07;101967.06;;;4.65;77.80
39773;BME280;25451;51.960;6.250;2023-04-02T08:47:41;101988.56;;;4.68;77.49
39773;BME280;25451;51.960;6.250;2023-04-02T08:50:15;101991.69;;;4.65;77.67
39773;BME280;25451;51.960;6.250;2023-04-02T08:52:45;102001.06;;;4.71;77.68
39773;BME280;25451;51.960;6.250;2023-04-02T08:56:03;102002.72;;;4.80;77.39
39773;BME280;25451;51.960;6.250;2023-04-02T08:58:40;102020.00;;;4.80;77.18
39773;BME280;25451;51.960;6.250;2023-04-02T09:01:16;102007.19;;;4.73;77.35
39773;BME280;25451;51.960;6.250;2023-04-02T09:03:47;102029.91;;;4.81;77.54
39773;BME280;25451;51.960;6.250;2023-04-02T09:06:17;102029.03;;;4.81;77.51
39773;BME280;25451;51.960;6.250;2023-04-02T09:08:44;102035.03;;;4.84;77.38
39773;BME280;25451;51.960;6.250;2023-04-02T09:11:24;102054.47;;;4.89;77.16
39773;BME280;25451;51.960;6.250;2023-04-02T09:13:57;102039.94;;;4.89;76.93
39773;BME280;25451;51.960;6.250;2023-04-02T09:16:34;102040.59;;;4.91;76.64
39773;BME280;25451;51.960;6.250;2023-04-02T09:19:13;102041.13;;;4.94;76.89
39773;BME280;25451;51.960;6.250;2023-04-02T09:22:35;102051.84;;;5.04;76.74
39773;BME280;25451;51.960;6.250;2023-04-02T09:24:35;102052.19;;;5.01;76.47
39773;BME280;25451;51.960;6.250;2023-04-02T09:27:02;102079.69;;;5.07;76.86
39773;BME280;25451;51.960;6.250;2023-04-02T09:29:48;102078.31;;;5.12;76.44
39773;BME280;25451;51.960;6.250;2023-04-02T09:35:19;102093.84;;;5.19;76.22
39773;BME280;25451;51.960;6.250;2023-04-02T09:37:45;102114.19;;;5.25;76.40
39773;BME280;25451;51.960;6.250;2023-04-02T09:40:23;102077.97;;;5.15;76.59
39773;BME280;25451;51.960;6.250;2023-04-02T09:43:02;102088.72;;;5.16;76.60
39773;BME280;25451;51.960;6.250;2023-04-02T09:45:27;102096.94;;;5.16;75.97
39773;BME280;25451;51.960;6.250;2023-04-02T09:47:54;102102.75;;;5.21;76.07
39773;BME280;25451;51.960;6.250;2023-04-02T09:52:45;102093.47;;;5.22;76.31
39773;BME280;25451;51.960;6.250;2023-04-02T09:57:43;102097.09;;;5.23;75.84
39773;BME280;25451;51.960;6.250;2023-04-02T10:02:36;102118.25;;;5.29;76.23
39773;BME280;25451;51.960;6.250;2023-04-02T10:05:04;102129.41;;;5.27;75.97
39773;BME280;25451;51.960;6.250;2023-04-02T10:07:39;102135.69;;;5.28;76.08
39773;BME280;25451;51.960;6.250;2023-04-02T10:10:25;102157.06;;;5.32;76.11
39773;BME280;25451;51.960;6.250;2023-04-02T10:13:00;102161.69;;;5.32;76.06
39773;BME280;25451;51.960;6.250;2023-04-02T10:15:36;102169.41;;;5.28;76.01
39773;BME280;25451;51.960;6.250;2023-04-02T10:18:19;102156.94;;;5.26;75.83
39773;BME280;25451;51.960;6.250;2023-04-02T10:20:46;102168.91;;;5.25;76.03
39773;BME280;25451;51.960;6.250;2023-04-02T10:23:15;102163.44;;;5.25;75.80
39773;BME280;25451;51.960;6.250;2023-04-02T10:25:46;102177.81;;;5.27;76.00
39773;BME280;25451;51.960;6.250;2023-04-02T10:33:33;102163.50;;;5.09;75.63
39773;BME280;25451;51.960;6.250;2023-04-02T10:36:10;102196.63;;;5.22;75.57
39773;BME280;25451;51.960;6.250;2023-04-02T10:39:01;102200.72;;;5.26;75.32
39773;BME280;25451;51.960;6.250;2023-04-02T10:41:34;102195.09;;;5.27;75.58
39773;BME280;25451;51.960;6.250;2023-04-02T10:44:23;102202.06;;;5.30;75.38
39773;BME280;25451;51.960;6.250;2023-04-02T10:49:36;102205.00;;;5.28;75.44
39773;BME280;25451;51.960;6.250;2023-04-02T10:52:19;102208.59;;;5.29;74.93
39773;BME280;25451;51.960;6.250;2023-04-02T10:54:51;102213.38;;;5.35;75.44
39773;BME280;25451;51.960;6.250;2023-04-02T10:57:40;102192.31;;;5.35;75.01
39773;BME280;25451;51.960;6.250;2023-04-02T11:00:13;102206.63;;;5.53;75.09
39773;BME280;25451;51.960;6.250;2023-04-02T11:02:53;102203.47;;;5.64;74.81
39773;BME280;25451;51.960;6.250;2023-04-02T11:05:28;102208.19;;;5.78;74.94
39773;BME280;25451;51.960;6.250;2023-04-02T11:10:37;102222.28;;;6.06;74.31
39773;BME280;25451;51.960;6.250;2023-04-02T11:13:12;102209.53;;;6.13;74.12
39773;BME280;25451;51.960;6.250;2023-04-02T11:15:39;102221.78;;;6.25;74.17
39773;BME280;25451;51.960;6.250;2023-04-02T11:18:05;102228.94;;;6.34;73.99
39773;BME280;25451;51.960;6.250;2023-04-02T11:23:18;102236.66;;;6.53;73.03
39773;BME280;25451;51.960;6.250;2023-04-02T11:25:44;102226.44;;;6.62;73.48
39773;BME280;25451;51.960;6.250;2023-04-02T11:28:30;102232.72;;;6.70;73.57
39773;BME280;25451;51.960;6.250;2023-04-02T11:30:56;102233.50;;;6.79;73.03
39773;BME280;25451;51.960;6.250;2023-04-02T11:35:59;102223.59;;;6.93;73.38
39773;BME280;25451;51.960;6.250;2023-04-02T11:48:48;102244.28;;;7.18;72.60
39773;BME280;25451;51.960;6.250;2023-04-02T11:53:46;102242.09;;;7.28;72.14
39773;BME280;25451;51.960;6.250;2023-04-02T11:56:31;102249.59;;;7.34;71.92
39773;BME280;25451;51.960;6.250;2023-04-02T12:05:24;102234.91;;;7.41;71.51
39773;BME280;25451;51.960;6.250;2023-04-02T12:10:50;102256.22;;;7.54;71.61
39773;BME280;25451;51.960;6.250;2023-04-02T12:16:12;102253.19;;;7.49;71.25
39773;BME280;25451;51.960;6.250;2023-04-02T12:18:43;102268.53;;;7.58;70.84
39773;BME280;25451;51.960;6.250;2023-04-02T12:21:17;102267.97;;;7.63;71.00
39773;BME280;25451;51.960;6.250;2023-04-02T12:23:45;102286.34;;;7.62;71.09
39773;BME280;25451;51.960;6.250;2023-04-02T12:26:29;102269.19;;;7.60;70.68
39773;BME280;25451;51.960;6.250;2023-04-02T12:29:26;102280.94;;;7.69;70.57
39773;BME280;25451;51.960;6.250;2023-04-02T12:31:56;102286.53;;;7.75;70.61
39773;BME280;25451;51.960;6.250;2023-04-02T12:34:24;102293.56;;;7.78;70.47
39773;BME280;25451;51.960;6.250;2023-04-02T12:37:02;102300.53;;;7.80;70.35
39773;BME280;25451;51.960;6.250;2023-04-02T12:39:29;102292.28;;;7.80;70.47
39773;BME280;25451;51.960;6.250;2023-04-02T12:41:55;102300.53;;;7.80;70.39
39773;BME280;25451;51.960;6.250;2023-04-02T12:44:24;102301.03;;;7.84;69.82
39773;BME280;25451;51.960;6.250;2023-04-02T12:46:50;102294.69;;;7.83;70.04
39773;BME280;25451;51.960;6.250;2023-04-02T12:49:33;102307.47;;;7.91;69.56
39773;BME280;25451;51.960;6.250;2023-04-02T12:52:02;102300.28;;;7.90;69.65
39773;BME280;25451;51.960;6.250;2023-04-02T12:54:29;102302.81;;;7.91;69.62
39773;BME280;25451;51.960;6.250;2023-04-02T12:57:21;102308.22;;;7.99;69.18
39773;BME280;25451;51.960;6.250;2023-04-02T12:59:47;102300.34;;;7.96;69.25
39773;BME280;25451;51.960;6.250;2023-04-02T13:02:24;102324.16;;;8.04;69.00
39773;BME280;25451;51.960;6.250;2023-04-02T13:04:51;102309.13;;;8.06;69.13
39773;BME280;25451;51.960;6.250;2023-04-02T13:07:20;102313.19;;;8.10;68.84
39773;BME280;25451;51.960;6.250;2023-04-02T13:10:22;102329.34;;;8.13;68.52
39773;BME280;25451;51.960;6.250;2023-04-02T13:12:54;102314.06;;;8.11;68.59
39773;BME280;25451;51.960;6.250;2023-04-02T13:15:30;102312.47;;;8.16;68.51
39773;BME280;25451;51.960;6.250;2023-04-02T13:18:20;102302.59;;;8.07;68.65
39773;BME280;25451;51.960;6.250;2023-04-02T13:21:00;102301.38;;;8.10;68.28
39773;BME280;25451;51.960;6.250;2023-04-02T13:25:57;102300.69;;;8.22;68.45
39773;BME280;25451;51.960;6.250;2023-04-02T13:28:23;102301.06;;;8.19;68.22
39773;BME280;25451;51.960;6.250;2023-04-02T13:30:49;102298.31;;;8.19;67.97
39773;BME280;25451;51.960;6.250;2023-04-02T13:33:14;102313.69;;;8.28;67.56
39773;BME280;25451;51.960;6.250;2023-04-02T13:35:41;102309.69;;;8.31;67.86
39773;BME280;25451;51.960;6.250;2023-04-02T13:38:07;102322.88;;;8.35;67.84
39773;BME280;25451;51.960;6.250;2023-04-02T13:40:33;102321.19;;;8.34;67.61
39773;BME280;25451;51.960;6.250;2023-04-02T13:42:59;102324.19;;;8.40;67.01
39773;BME280;25451;51.960;6.250;2023-04-02T13:45:51;102313.19;;;8.40;66.95
39773;BME280;25451;51.960;6.250;2023-04-02T13:48:18;102331.78;;;8.38;67.31
39773;BME280;25451;51.960;6.250;2023-04-02T13:50:44;102336.06;;;8.40;66.92
39773;BME280;25451;51.960;6.250;2023-04-02T13:53:19;102332.44;;;8.40;66.97
39773;BME280;25451;51.960;6.250;2023-04-02T13:55:46;102333.75;;;8.44;67.01
39773;BME280;25451;51.960;6.250;2023-04-02T13:58:11;102306.38;;;8.35;66.63
39773;BME280;25451;51.960;6.250;2023-04-02T14:00:37;102318.69;;;8.40;66.78
39773;BME280;25451;51.960;6.250;2023-04-02T14:03:10;102321.72;;;8.45;66.40
39773;BME280;25451;51.960;6.250;2023-04-02T14:05:43;102333.84;;;8.50;66.56
39773;BME280;25451;51.960;6.250;2023-04-02T14:08:50;102324.53;;;8.51;66.42
39773;BME280;25451;51.960;6.250;2023-04-02T14:22:29;102342.97;;;8.51;65.96
39773;BME280;25451;51.960;6.250;2023-04-02T14:30:47;102348.47;;;8.51;65.41
39773;BME280;25451;51.960;6.250;2023-04-02T14:37:03;102343.72;;;8.45;65.02
39773;BME280;25451;51.960;6.250;2023-04-02T14:41:59;102355.94;;;8.57;65.14
39773;BME280;25451;51.960;6.250;2023-04-02T14:44:29;102351.47;;;8.56;64.94
39773;BME280;25451;51.960;6.250;2023-04-02T14:47:08;102355.72;;;8.58;64.82
39773;BME280;25451;51.960;6.250;2023-04-02T14:49:39;102368.47;;;8.59;65.11
39773;BME280;25451;51.960;6.250;2023-04-02T14:52:16;102362.09;;;8.59;65.01
39773;BME280;25451;51.960;6.250;2023-04-02T14:54:53;102366.63;;;8.66;64.81
39773;BME280;25451;51.960;6.250;2023-04-02T14:57:23;102373.84;;;8.67;65.08
39773;BME280;25451;51.960;6.250;2023-04-02T15:02:41;102383.59;;;8.70;64.99
39773;BME280;25451;51.960;6.250;2023-04-02T15:05:18;102387.41;;;8.69;65.09
39773;BME280;25451;51.960;6.250;2023-04-02T15:07:52;102379.59;;;8.72;64.96
39773;BME280;25451;51.960;6.250;2023-04-02T15:10:33;102397.34;;;8.70;64.59
39773;BME280;25451;51.960;6.250;2023-04-02T15:13:05;102392.50;;;8.72;64.46
39773;BME280;25451;51.960;6.250;2023-04-02T15:15:40;102402.94;;;8.76;64.45
39773;BME280;25451;51.960;6.250;2023-04-02T15:18:10;102385.31;;;8.71;64.47
39773;BME280;25451;51.960;6.250;2023-04-02T15:23:36;102403.81;;;8.77;64.29
39773;BME280;25451;51.960;6.250;2023-04-02T15:26:19;102413.97;;;8.76;64.31
39773;BME280;25451;51.960;6.250;2023-04-02T15:31:47;102396.53;;;8.69;64.28
39773;BME280;25451;51.960;6.250;2023-04-02T15:34:31;102414.81;;;8.77;64.34
39773;BME280;25451;51.960;6.250;2023-04-02T15:37:16;102410.09;;;8.71;63.82
39773;BME280;25451;51.960;6.250;2023-04-02T15:39:55;102416.91;;;8.75;63.94
39773;BME280;25451;51.960;6.250;2023-04-02T15:42:30;102408.44;;;8.76;63.91
39773;BME280;25451;51.960;6.250;2023-04-02T15:52:59;102408.84;;;8.73;64.06
39773;BME280;25451;51.960;6.250;2023-04-02T15:55:38;102413.88;;;8.70;64.03
39773;BME280;25451;51.960;6.250;2023-04-02T16:06:29;102415.13;;;8.67;64.09
39773;BME280;25451;51.960;6.250;2023-04-02T16:09:25;102427.06;;;8.74;63.78
39773;BME280;25451;51.960;6.250;2023-04-02T16:12:00;102427.28;;;8.73;63.91
39773;BME280;25451;51.960;6.250;2023-04-02T16:14:33;102420.00;;;8.65;63.68
39773;BME280;25451;51.960;6.250;2023-04-02T16:17:05;102438.47;;;8.71;64.24
39773;BME280;25451;51.960;6.250;2023-04-02T16:19:41;102435.91;;;8.70;63.78
39773;BME280;25451;51.960;6.250;2023-04-02T16:22:28;102447.78;;;8.70;63.63
39773;BME280;25451;51.960;6.250;2023-04-02T16:25:13;102443.50;;;8.68;63.86